sensor_id;sensor_type;location;lat;lon;timestamp;temperature;humidity
15231;DHT22;32569;51.762;8.564;2022-09-09T00:01:47;15.50;99.90
15231;DHT22;32569;51.762;8.564;2022-09-09T00:04:25;15.50;99.90
15231;DHT22;32569;51.762;8.564;2022-09-09T00:07:01;15.60;99.90
15231;DHT22;32569;51.762;8.564;2022-09-09T00:09:32;15.60;99.90
15231;DHT22;32569;51.762;8.564;2022-09-09T00:12:10;15.60;99.90
15231;DHT22;32569;51.762;8.564;2022-09-09T00:14:42;15.60;99.90
15231;DHT22;32569;51.762;8.564;2022-09-09T00:17:14;15.70;99.90
15231;DHT22;32569;51.762;8.564;2022-09-09T00:19:48;15.60;99.90
15231;DHT22;32569;51.762;8.564;2022-09-09T00:22:18;15.60;99.90
15231;DHT22;32569;51.762;8.564;2022-09-09T00:24:46;15.60;99.90
15231;DHT22;32569;51.762;8.564;2022-09-09T00:27:22;15.60;99.90
15231;DHT22;32569;51.762;8.564;2022-09-09T00:29:53;15.60;99.90
15231;DHT22;32569;51.762;8.564;2022-09-09T00:32:21;15.60;99.90
15231;DHT22;32569;51.762;8.564;2022-09-09T00:34:53;15.60;99.90
15231;DHT22;32569;51.762;8.564;2022-09-09T00:37:23;15.70;99.90
15231;DHT22;32569;51.762;8.564;2022-09-09T00:39:55;15.80;99.90
15231;DHT22;32569;51.762;8.564;2022-09-09T00:42:26;15.90;99.90
15231;DHT22;32569;51.762;8.564;2022-09-09T00:44:59;15.90;99.90
15231;DHT22;32569;51.762;8.564;2022-09-09T00:47:45;16.00;99.90
15231;DHT22;32569;51.762;8.564;2022-09-09T00:50:45;16.10;99.90
15231;DHT22;32569;51.762;8.564;2022-09-09T00:53:28;16.00;99.90
15231;DHT22;32569;51.762;8.564;2022-09-09T00:56:03;16.10;99.90
15231;DHT22;32569;51.762;8.564;2022-09-09T00:58:31;16.10;99.90
15231;DHT22;32569;51.762;8.564;2022-09-09T01:01:02;16.10;99.90
15231;DHT22;32569;51.762;8.564;2022-09-09T01:03:35;16.10;99.90
15231;DHT22;32569;51.762;8.564;2022-09-09T01:06:13;16.10;99.90
15231;DHT22;32569;51.762;8.564;2022-09-09T01:09:02;16.20;99.90
15231;DHT22;32569;51.762;8.564;2022-09-09T01:11:36;16.10;99.90
15231;DHT22;32569;51.762;8.564;2022-09-09T01:14:14;16.20;99.90
15231;DHT22;32569;51.762;8.564;2022-09-09T01:16:45;16.20;99.90
15231;DHT22;32569;51.762;8.564;2022-09-09T01:19:18;16.20;99.90
15231;DHT22;32569;51.762;8.564;2022-09-09T01:21:54;16.20;99.90
15231;DHT22;32569;51.762;8.564;2022-09-09T01:24:27;16.20;99.90
15231;DHT22;32569;51.762;8.564;2022-09-09T01:26:59;16.20;99.90
15231;DHT22;32569;51.762;8.564;2022-09-09T01:29:27;16.20;99.90
15231;DHT22;32569;51.762;8.564;2022-09-09T01:31:56;16.10;99.90
15231;DHT22;32569;51.762;8.564;2022-09-09T01:34:25;16.00;99.90
15231;DHT22;32569;51.762;8.564;2022-09-09T01:36:57;16.00;99.90
15231;DHT22;32569;51.762;8.564;2022-09-09T01:39:24;15.90;99.90
15231;DHT22;32569;51.762;8.564;2022-09-09T01:41:52;15.90;99.90
15231;DHT22;32569;51.762;8.564;2022-09-09T01:44:21;15.90;99.90
15231;DHT22;32569;51.762;8.564;2022-09-09T01:46:48;15.90;99.90
15231;DHT22;32569;51.762;8.564;2022-09-09T01:49:16;15.90;99.90
15231;DHT22;32569;51.762;8.564;2022-09-09T01:51:43;15.90;99.90
15231;DHT22;32569;51.762;8.564;2022-09-09T01:54:13;15.90;99.90
15231;DHT22;32569;51.762;8.564;2022-09-09T01:56:49;15.90;99.90
15231;DHT22;32569;51.762;8.564;2022-09-09T01:59:27;15.80;99.90
15231;DHT22;32569;51.762;8.564;2022-09-09T02:02:06;15.80;99.90
15231;DHT22;32569;51.762;8.564;2022-09-09T02:04:39;15.70;99.90
15231;DHT22;32569;51.762;8.564;2022-09-09T02:07:17;15.70;99.90
15231;DHT22;32569;51.762;8.564;2022-09-09T02:09:52;15.70;99.90
15231;DHT22;32569;51.762;8.564;2022-09-09T02:12:24;15.80;99.90
15231;DHT22;32569;51.762;8.564;2022-09-09T02:14:58;15.80;99.90
15231;DHT22;32569;51.762;8.564;2022-09-09T02:17:30;15.80;99.90
15231;DHT22;32569;51.762;8.564;2022-09-09T02:20:03;15.80;99.90
15231;DHT22;32569;51.762;8.564;2022-09-09T02:22:33;15.80;99.90
15231;DHT22;32569;51.762;8.564;2022-09-09T02:25:01;15.80;99.90
15231;DHT22;32569;51.762;8.564;2022-09-09T02:27:29;15.90;99.90
15231;DHT22;32569;51.762;8.564;2022-09-09T02:29:59;15.90;99.90
15231;DHT22;32569;51.762;8.564;2022-09-09T02:32:29;15.90;99.90
15231;DHT22;32569;51.762;8.564;2022-09-09T02:35:02;15.90;99.90
15231;DHT22;32569;51.762;8.564;2022-09-09T02:37:36;15.90;99.90
15231;DHT22;32569;51.762;8.564;2022-09-09T02:40:04;15.90;99.90
15231;DHT22;32569;51.762;8.564;2022-09-09T02:42:31;15.90;99.90
15231;DHT22;32569;51.762;8.564;2022-09-09T02:45:00;15.90;99.90
15231;DHT22;32569;51.762;8.564;2022-09-09T02:47:33;15.90;99.90
15231;DHT22;32569;51.762;8.564;2022-09-09T02:50:11;15.90;99.90
15231;DHT22;32569;51.762;8.564;2022-09-09T02:52:47;15.90;99.90
15231;DHT22;32569;51.762;8.564;2022-09-09T02:55:23;15.90;99.90
15231;DHT22;32569;51.762;8.564;2022-09-09T02:57:52;15.90;99.90
15231;DHT22;32569;51.762;8.564;2022-09-09T03:00:24;15.90;99.90
15231;DHT22;32569;51.762;8.564;2022-09-09T03:02:52;15.90;99.90
15231;DHT22;32569;51.762;8.564;2022-09-09T03:05:20;15.90;99.90
15231;DHT22;32569;51.762;8.564;2022-09-09T03:07:47;15.90;99.90
15231;DHT22;32569;51.762;8.564;2022-09-09T03:10:15;15.90;99.90
15231;DHT22;32569;51.762;8.564;2022-09-09T03:12:42;15.90;99.90
15231;DHT22;32569;51.762;8.564;2022-09-09T03:15:10;16.00;99.90
15231;DHT22;32569;51.762;8.564;2022-09-09T03:17:38;16.00;99.90
15231;DHT22;32569;51.762;8.564;2022-09-09T03:20:06;16.00;99.90
15231;DHT22;32569;51.762;8.564;2022-09-09T03:22:33;16.00;99.90
15231;DHT22;32569;51.762;8.564;2022-09-09T03:25:00;16.00;99.90
15231;DHT22;32569;51.762;8.564;2022-09-09T03:27:28;16.00;99.90
15231;DHT22;32569;51.762;8.564;2022-09-09T03:29:55;16.00;99.90
15231;DHT22;32569;51.762;8.564;2022-09-09T03:32:22;16.00;99.90
15231;DHT22;32569;51.762;8.564;2022-09-09T03:34:52;16.00;99.90
15231;DHT22;32569;51.762;8.564;2022-09-09T03:37:19;16.00;99.90
15231;DHT22;32569;51.762;8.564;2022-09-09T03:39:46;16.00;99.90
15231;DHT22;32569;51.762;8.564;2022-09-09T03:42:13;16.00;99.90
15231;DHT22;32569;51.762;8.564;2022-09-09T03:44:44;16.00;99.90
15231;DHT22;32569;51.762;8.564;2022-09-09T03:47:13;16.00;99.90
15231;DHT22;32569;51.762;8.564;2022-09-09T03:49:40;16.00;99.90
15231;DHT22;32569;51.762;8.564;2022-09-09T03:52:09;16.00;99.90
15231;DHT22;32569;51.762;8.564;2022-09-09T03:54:37;16.00;99.90
15231;DHT22;32569;51.762;8.564;2022-09-09T03:57:04;16.00;99.90
15231;DHT22;32569;51.762;8.564;2022-09-09T03:59:31;16.00;99.90
15231;DHT22;32569;51.762;8.564;2022-09-09T04:01:58;16.00;99.90
15231;DHT22;32569;51.762;8.564;2022-09-09T04:04:25;16.00;99.90
15231;DHT22;32569;51.762;8.564;2022-09-09T04:06:52;16.10;99.90
15231;DHT22;32569;51.762;8.564;2022-09-09T04:09:20;16.10;99.90
15231;DHT22;32569;51.762;8.564;2022-09-09T04:11:47;16.00;99.90
15231;DHT22;32569;51.762;8.564;2022-09-09T04:14:14;16.00;99.90
15231;DHT22;32569;51.762;8.564;2022-09-09T04:16:41;16.00;99.90
15231;DHT22;32569;51.762;8.564;2022-09-09T04:19:10;16.00;99.90
15231;DHT22;32569;51.762;8.564;2022-09-09T04:21:37;15.90;99.90
15231;DHT22;32569;51.762;8.564;2022-09-09T04:24:05;15.90;99.90
15231;DHT22;32569;51.762;8.564;2022-09-09T04:26:34;15.90;99.90
15231;DHT22;32569;51.762;8.564;2022-09-09T04:29:02;15.90;99.90
15231;DHT22;32569;51.762;8.564;2022-09-09T04:31:28;15.90;99.90
15231;DHT22;32569;51.762;8.564;2022-09-09T04:33:55;15.90;99.90
15231;DHT22;32569;51.762;8.564;2022-09-09T04:36:22;15.90;99.90
15231;DHT22;32569;51.762;8.564;2022-09-09T04:38:49;15.90;99.90
15231;DHT22;32569;51.762;8.564;2022-09-09T04:41:15;15.90;99.90
15231;DHT22;32569;51.762;8.564;2022-09-09T04:43:44;15.80;99.90
15231;DHT22;32569;51.762;8.564;2022-09-09T04:46:10;15.80;99.90
15231;DHT22;32569;51.762;8.564;2022-09-09T04:48:37;15.80;99.90
15231;DHT22;32569;51.762;8.564;2022-09-09T04:51:06;15.80;99.90
15231;DHT22;32569;51.762;8.564;2022-09-09T04:53:34;15.70;99.90
15231;DHT22;32569;51.762;8.564;2022-09-09T04:56:02;15.70;99.90
15231;DHT22;32569;51.762;8.564;2022-09-09T04:58:29;15.70;99.90
15231;DHT22;32569;51.762;8.564;2022-09-09T05:01:04;15.60;99.90
15231;DHT22;32569;51.762;8.564;2022-09-09T05:03:31;15.60;99.90
15231;DHT22;32569;51.762;8.564;2022-09-09T05:06:05;15.50;99.90
15231;DHT22;32569;51.762;8.564;2022-09-09T05:08:31;15.50;99.90
15231;DHT22;32569;51.762;8.564;2022-09-09T05:10:58;15.50;99.90
15231;DHT22;32569;51.762;8.564;2022-09-09T05:13:25;15.50;99.90
15231;DHT22;32569;51.762;8.564;2022-09-09T05:15:52;15.50;99.90
15231;DHT22;32569;51.762;8.564;2022-09-09T05:18:21;15.60;99.90
15231;DHT22;32569;51.762;8.564;2022-09-09T05:20:47;15.80;99.90
15231;DHT22;32569;51.762;8.564;2022-09-09T05:23:14;16.20;99.90
15231;DHT22;32569;51.762;8.564;2022-09-09T05:25:41;16.90;99.90
15231;DHT22;32569;51.762;8.564;2022-09-09T05:28:09;17.50;99.90
15231;DHT22;32569;51.762;8.564;2022-09-09T05:30:36;17.90;99.90
15231;DHT22;32569;51.762;8.564;2022-09-09T05:33:03;18.00;99.90
15231;DHT22;32569;51.762;8.564;2022-09-09T05:35:32;17.80;99.90
15231;DHT22;32569;51.762;8.564;2022-09-09T05:37:59;17.40;99.90
15231;DHT22;32569;51.762;8.564;2022-09-09T05:40:27;17.40;99.90
15231;DHT22;32569;51.762;8.564;2022-09-09T05:42:53;17.90;99.90
15231;DHT22;32569;51.762;8.564;2022-09-09T05:45:20;18.40;99.90
15231;DHT22;32569;51.762;8.564;2022-09-09T05:47:51;18.60;99.90
15231;DHT22;32569;51.762;8.564;2022-09-09T05:50:19;18.30;99.90
15231;DHT22;32569;51.762;8.564;2022-09-09T05:52:47;18.00;99.90
15231;DHT22;32569;51.762;8.564;2022-09-09T05:55:15;17.60;99.90
15231;DHT22;32569;51.762;8.564;2022-09-09T05:57:48;17.60;99.90
15231;DHT22;32569;51.762;8.564;2022-09-09T06:00:15;17.40;99.90
15231;DHT22;32569;51.762;8.564;2022-09-09T06:02:41;17.30;99.90
15231;DHT22;32569;51.762;8.564;2022-09-09T06:05:09;17.20;99.90
15231;DHT22;32569;51.762;8.564;2022-09-09T06:07:36;17.20;99.90
15231;DHT22;32569;51.762;8.564;2022-09-09T06:10:09;17.10;99.90
15231;DHT22;32569;51.762;8.564;2022-09-09T06:12:35;17.00;99.90
15231;DHT22;32569;51.762;8.564;2022-09-09T06:15:03;17.00;99.90
15231;DHT22;32569;51.762;8.564;2022-09-09T06:17:30;17.10;99.90
15231;DHT22;32569;51.762;8.564;2022-09-09T06:19:56;17.10;99.90
15231;DHT22;32569;51.762;8.564;2022-09-09T06:22:23;17.10;99.90
15231;DHT22;32569;51.762;8.564;2022-09-09T06:24:50;17.20;99.90
15231;DHT22;32569;51.762;8.564;2022-09-09T06:27:20;17.20;99.90
15231;DHT22;32569;51.762;8.564;2022-09-09T06:29:47;17.20;99.90
15231;DHT22;32569;51.762;8.564;2022-09-09T06:32:14;17.20;99.90
15231;DHT22;32569;51.762;8.564;2022-09-09T06:34:40;17.10;99.90
15231;DHT22;32569;51.762;8.564;2022-09-09T06:37:07;17.10;99.90
15231;DHT22;32569;51.762;8.564;2022-09-09T06:39:33;17.00;99.90
15231;DHT22;32569;51.762;8.564;2022-09-09T06:42:00;17.00;99.90
15231;DHT22;32569;51.762;8.564;2022-09-09T06:44:29;17.00;99.90
15231;DHT22;32569;51.762;8.564;2022-09-09T06:46:59;17.10;99.90
15231;DHT22;32569;51.762;8.564;2022-09-09T06:49:25;17.00;99.90
15231;DHT22;32569;51.762;8.564;2022-09-09T06:51:52;17.00;99.90
15231;DHT22;32569;51.762;8.564;2022-09-09T06:54:19;17.10;99.90
15231;DHT22;32569;51.762;8.564;2022-09-09T06:56:47;17.10;99.90
15231;DHT22;32569;51.762;8.564;2022-09-09T06:59:15;17.10;99.90
15231;DHT22;32569;51.762;8.564;2022-09-09T07:01:43;17.10;99.90
15231;DHT22;32569;51.762;8.564;2022-09-09T07:04:11;17.10;99.90
15231;DHT22;32569;51.762;8.564;2022-09-09T07:06:40;17.20;99.90
15231;DHT22;32569;51.762;8.564;2022-09-09T07:09:09;17.20;99.90
15231;DHT22;32569;51.762;8.564;2022-09-09T07:11:38;17.20;99.90
15231;DHT22;32569;51.762;8.564;2022-09-09T07:14:06;17.20;99.90
15231;DHT22;32569;51.762;8.564;2022-09-09T07:16:34;17.40;99.90
15231;DHT22;32569;51.762;8.564;2022-09-09T07:19:04;17.50;99.90
15231;DHT22;32569;51.762;8.564;2022-09-09T07:21:31;17.60;99.90
15231;DHT22;32569;51.762;8.564;2022-09-09T07:23:59;17.70;99.90
15231;DHT22;32569;51.762;8.564;2022-09-09T07:26:28;17.80;99.90
15231;DHT22;32569;51.762;8.564;2022-09-09T07:28:55;17.90;99.90
15231;DHT22;32569;51.762;8.564;2022-09-09T07:31:26;18.00;99.90
15231;DHT22;32569;51.762;8.564;2022-09-09T07:33:53;18.10;99.90
15231;DHT22;32569;51.762;8.564;2022-09-09T07:36:23;18.20;99.90
15231;DHT22;32569;51.762;8.564;2022-09-09T07:38:52;18.40;99.90
15231;DHT22;32569;51.762;8.564;2022-09-09T07:41:21;18.40;99.90
15231;DHT22;32569;51.762;8.564;2022-09-09T07:43:49;18.50;99.90
15231;DHT22;32569;51.762;8.564;2022-09-09T07:46:18;18.70;99.90
15231;DHT22;32569;51.762;8.564;2022-09-09T07:48:46;18.70;99.90
15231;DHT22;32569;51.762;8.564;2022-09-09T07:51:17;18.80;99.90
15231;DHT22;32569;51.762;8.564;2022-09-09T07:53:46;18.80;99.90
15231;DHT22;32569;51.762;8.564;2022-09-09T07:56:14;18.80;99.90
15231;DHT22;32569;51.762;8.564;2022-09-09T07:58:44;18.70;99.90
15231;DHT22;32569;51.762;8.564;2022-09-09T08:01:12;18.70;99.90
15231;DHT22;32569;51.762;8.564;2022-09-09T08:03:39;18.60;99.90
15231;DHT22;32569;51.762;8.564;2022-09-09T08:06:08;18.70;99.90
15231;DHT22;32569;51.762;8.564;2022-09-09T08:08:35;18.60;99.90
15231;DHT22;32569;51.762;8.564;2022-09-09T08:11:06;18.50;99.90
15231;DHT22;32569;51.762;8.564;2022-09-09T08:13:35;18.40;99.90
15231;DHT22;32569;51.762;8.564;2022-09-09T08:16:10;18.30;99.90
15231;DHT22;32569;51.762;8.564;2022-09-09T08:18:38;18.20;99.90
15231;DHT22;32569;51.762;8.564;2022-09-09T08:21:06;18.10;99.90
15231;DHT22;32569;51.762;8.564;2022-09-09T08:23:34;18.20;99.90
15231;DHT22;32569;51.762;8.564;2022-09-09T08:26:07;18.10;99.90
15231;DHT22;32569;51.762;8.564;2022-09-09T08:28:34;18.10;99.90
15231;DHT22;32569;51.762;8.564;2022-09-09T08:31:12;18.20;99.90
15231;DHT22;32569;51.762;8.564;2022-09-09T08:33:39;18.20;99.90
15231;DHT22;32569;51.762;8.564;2022-09-09T08:36:09;18.30;99.90
15231;DHT22;32569;51.762;8.564;2022-09-09T08:38:36;18.40;99.90
15231;DHT22;32569;51.762;8.564;2022-09-09T08:41:14;18.50;99.90
15231;DHT22;32569;51.762;8.564;2022-09-09T08:43:46;18.60;99.90
15231;DHT22;32569;51.762;8.564;2022-09-09T08:46:18;18.90;99.90
15231;DHT22;32569;51.762;8.564;2022-09-09T08:48:55;19.10;99.90
15231;DHT22;32569;51.762;8.564;2022-09-09T08:51:25;19.30;99.90
15231;DHT22;32569;51.762;8.564;2022-09-09T08:53:54;19.30;99.90
15231;DHT22;32569;51.762;8.564;2022-09-09T08:56:27;19.30;99.90
15231;DHT22;32569;51.762;8.564;2022-09-09T08:59:00;19.40;99.90
15231;DHT22;32569;51.762;8.564;2022-09-09T09:01:47;19.60;99.90
15231;DHT22;32569;51.762;8.564;2022-09-09T09:04:33;19.90;99.90
15231;DHT22;32569;51.762;8.564;2022-09-09T09:07:12;20.10;99.90
15231;DHT22;32569;51.762;8.564;2022-09-09T09:09:46;20.10;99.90
15231;DHT22;32569;51.762;8.564;2022-09-09T09:12:21;20.20;99.90
15231;DHT22;32569;51.762;8.564;2022-09-09T09:14:49;20.00;99.90
15231;DHT22;32569;51.762;8.564;2022-09-09T09:17:18;19.80;99.90
15231;DHT22;32569;51.762;8.564;2022-09-09T09:19:46;19.70;99.90
15231;DHT22;32569;51.762;8.564;2022-09-09T09:22:17;19.70;99.90
15231;DHT22;32569;51.762;8.564;2022-09-09T09:24:50;20.00;99.50
15231;DHT22;32569;51.762;8.564;2022-09-09T09:27:26;20.10;98.90
15231;DHT22;32569;51.762;8.564;2022-09-09T09:29:55;20.00;98.80
15231;DHT22;32569;51.762;8.564;2022-09-09T09:32:24;20.00;98.70
15231;DHT22;32569;51.762;8.564;2022-09-09T09:34:55;19.90;98.70
15231;DHT22;32569;51.762;8.564;2022-09-09T09:37:28;20.00;98.70
15231;DHT22;32569;51.762;8.564;2022-09-09T09:39:55;20.00;98.40
15231;DHT22;32569;51.762;8.564;2022-09-09T09:42:23;19.80;98.90
15231;DHT22;32569;51.762;8.564;2022-09-09T09:44:51;19.80;99.00
15231;DHT22;32569;51.762;8.564;2022-09-09T09:47:19;19.80;99.20
15231;DHT22;32569;51.762;8.564;2022-09-09T09:49:53;19.80;99.00
15231;DHT22;32569;51.762;8.564;2022-09-09T09:52:23;19.80;99.20
15231;DHT22;32569;51.762;8.564;2022-09-09T09:54:50;19.80;99.20
15231;DHT22;32569;51.762;8.564;2022-09-09T09:57:18;19.80;99.40
15231;DHT22;32569;51.762;8.564;2022-09-09T09:59:46;19.90;99.00
15231;DHT22;32569;51.762;8.564;2022-09-09T10:02:18;19.90;98.50
15231;DHT22;32569;51.762;8.564;2022-09-09T10:04:46;19.80;98.50
15231;DHT22;32569;51.762;8.564;2022-09-09T10:07:17;19.80;98.30
15231;DHT22;32569;51.762;8.564;2022-09-09T10:09:45;19.80;97.90
15231;DHT22;32569;51.762;8.564;2022-09-09T10:12:20;19.90;97.90
15231;DHT22;32569;51.762;8.564;2022-09-09T10:14:56;19.90;97.80
15231;DHT22;32569;51.762;8.564;2022-09-09T10:17:34;20.10;98.00
15231;DHT22;32569;51.762;8.564;2022-09-09T10:20:18;20.20;97.40
15231;DHT22;32569;51.762;8.564;2022-09-09T10:22:51;20.20;97.10
15231;DHT22;32569;51.762;8.564;2022-09-09T10:25:29;20.20;97.40
15231;DHT22;32569;51.762;8.564;2022-09-09T10:28:21;20.10;97.10
15231;DHT22;32569;51.762;8.564;2022-09-09T10:31:01;20.10;97.40
15231;DHT22;32569;51.762;8.564;2022-09-09T10:33:41;20.10;97.30
15231;DHT22;32569;51.762;8.564;2022-09-09T10:36:13;20.20;97.10
15231;DHT22;32569;51.762;8.564;2022-09-09T10:38:46;20.20;96.80
15231;DHT22;32569;51.762;8.564;2022-09-09T10:41:19;20.20;97.30
15231;DHT22;32569;51.762;8.564;2022-09-09T10:44:06;20.20;97.30
15231;DHT22;32569;51.762;8.564;2022-09-09T10:46:51;20.20;97.00
15231;DHT22;32569;51.762;8.564;2022-09-09T10:49:29;20.30;97.30
15231;DHT22;32569;51.762;8.564;2022-09-09T10:52:05;20.30;97.30
15231;DHT22;32569;51.762;8.564;2022-09-09T10:54:43;20.30;96.70
15231;DHT22;32569;51.762;8.564;2022-09-09T10:57:24;20.30;96.80
15231;DHT22;32569;51.762;8.564;2022-09-09T10:59:56;20.30;97.30
15231;DHT22;32569;51.762;8.564;2022-09-09T11:02:28;20.20;97.40
15231;DHT22;32569;51.762;8.564;2022-09-09T11:04:59;20.30;97.50
15231;DHT22;32569;51.762;8.564;2022-09-09T11:07:30;20.50;97.30
15231;DHT22;32569;51.762;8.564;2022-09-09T11:10:03;20.50;97.10
15231;DHT22;32569;51.762;8.564;2022-09-09T11:12:34;20.60;96.50
15231;DHT22;32569;51.762;8.564;2022-09-09T11:15:06;20.80;97.20
15231;DHT22;32569;51.762;8.564;2022-09-09T11:17:36;21.00;95.80
15231;DHT22;32569;51.762;8.564;2022-09-09T11:20:11;21.20;95.60
15231;DHT22;32569;51.762;8.564;2022-09-09T11:22:44;21.30;95.30
15231;DHT22;32569;51.762;8.564;2022-09-09T11:25:16;21.20;95.10
15231;DHT22;32569;51.762;8.564;2022-09-09T11:27:54;21.00;95.50
15231;DHT22;32569;51.762;8.564;2022-09-09T11:30:29;20.80;96.20
15231;DHT22;32569;51.762;8.564;2022-09-09T11:36:03;20.40;96.60
15231;DHT22;32569;51.762;8.564;2022-09-09T11:38:38;20.20;96.80
15231;DHT22;32569;51.762;8.564;2022-09-09T11:41:07;20.10;97.50
15231;DHT22;32569;51.762;8.564;2022-09-09T11:43:39;20.00;97.90
15231;DHT22;32569;51.762;8.564;2022-09-09T11:46:07;20.00;96.10
15231;DHT22;32569;51.762;8.564;2022-09-09T11:48:38;19.90;95.90
15231;DHT22;32569;51.762;8.564;2022-09-09T11:51:10;20.20;95.40
15231;DHT22;32569;51.762;8.564;2022-09-09T11:53:48;20.60;95.10
15231;DHT22;32569;51.762;8.564;2022-09-09T11:56:25;21.10;94.40
15231;DHT22;32569;51.762;8.564;2022-09-09T11:58:58;21.30;94.20
15231;DHT22;32569;51.762;8.564;2022-09-09T12:01:33;21.30;94.80
15231;DHT22;32569;51.762;8.564;2022-09-09T12:07:23;21.10;94.80
15231;DHT22;32569;51.762;8.564;2022-09-09T12:09:56;21.00;95.00
15231;DHT22;32569;51.762;8.564;2022-09-09T12:12:29;21.00;95.80
15231;DHT22;32569;51.762;8.564;2022-09-09T12:15:03;21.20;95.70
15231;DHT22;32569;51.762;8.564;2022-09-09T12:17:47;21.20;94.40
15231;DHT22;32569;51.762;8.564;2022-09-09T12:20:18;21.10;94.80
15231;DHT22;32569;51.762;8.564;2022-09-09T12:23:08;21.30;94.10
15231;DHT22;32569;51.762;8.564;2022-09-09T12:25:51;21.40;94.50
15231;DHT22;32569;51.762;8.564;2022-09-09T12:28:22;21.50;94.80
15231;DHT22;32569;51.762;8.564;2022-09-09T12:30:56;21.70;94.70
15231;DHT22;32569;51.762;8.564;2022-09-09T12:33:25;21.70;94.30
15231;DHT22;32569;51.762;8.564;2022-09-09T12:36:04;21.50;94.40
15231;DHT22;32569;51.762;8.564;2022-09-09T12:38:37;21.30;94.40
15231;DHT22;32569;51.762;8.564;2022-09-09T12:41:05;21.20;95.00
15231;DHT22;32569;51.762;8.564;2022-09-09T12:43:31;21.20;95.20
15231;DHT22;32569;51.762;8.564;2022-09-09T12:46:00;21.10;95.20
15231;DHT22;32569;51.762;8.564;2022-09-09T12:48:32;21.10;95.50
15231;DHT22;32569;51.762;8.564;2022-09-09T12:51:00;21.10;95.60
15231;DHT22;32569;51.762;8.564;2022-09-09T12:53:30;21.00;96.00
15231;DHT22;32569;51.762;8.564;2022-09-09T12:56:00;20.80;97.40
15231;DHT22;32569;51.762;8.564;2022-09-09T12:58:28;20.50;98.20
15231;DHT22;32569;51.762;8.564;2022-09-09T13:00:58;20.30;99.90
15231;DHT22;32569;51.762;8.564;2022-09-09T13:03:26;20.00;99.90
15231;DHT22;32569;51.762;8.564;2022-09-09T13:05:57;19.80;99.90
15231;DHT22;32569;51.762;8.564;2022-09-09T13:08:25;19.90;99.90
15231;DHT22;32569;51.762;8.564;2022-09-09T13:10:55;20.00;99.90
15231;DHT22;32569;51.762;8.564;2022-09-09T13:13:28;20.30;99.90
15231;DHT22;32569;51.762;8.564;2022-09-09T13:15:57;20.50;99.90
15231;DHT22;32569;51.762;8.564;2022-09-09T13:18:26;20.70;99.90
15231;DHT22;32569;51.762;8.564;2022-09-09T13:20:54;20.80;99.90
15231;DHT22;32569;51.762;8.564;2022-09-09T13:23:25;20.80;99.90
15231;DHT22;32569;51.762;8.564;2022-09-09T13:25:54;20.90;99.90
15231;DHT22;32569;51.762;8.564;2022-09-09T13:28:28;20.90;99.00
15231;DHT22;32569;51.762;8.564;2022-09-09T13:30:56;21.00;99.20
15231;DHT22;32569;51.762;8.564;2022-09-09T13:33:30;21.10;99.40
15231;DHT22;32569;51.762;8.564;2022-09-09T13:35:58;21.00;97.80
15231;DHT22;32569;51.762;8.564;2022-09-09T13:38:28;20.80;98.40
15231;DHT22;32569;51.762;8.564;2022-09-09T13:40:57;20.70;99.30
15231;DHT22;32569;51.762;8.564;2022-09-09T13:43:26;20.70;98.40
15231;DHT22;32569;51.762;8.564;2022-09-09T13:45:55;20.80;98.70
15231;DHT22;32569;51.762;8.564;2022-09-09T13:48:23;20.90;96.80
15231;DHT22;32569;51.762;8.564;2022-09-09T13:50:55;20.90;97.50
15231;DHT22;32569;51.762;8.564;2022-09-09T13:53:22;20.80;96.80
15231;DHT22;32569;51.762;8.564;2022-09-09T13:55:49;20.80;96.10
15231;DHT22;32569;51.762;8.564;2022-09-09T13:58:17;20.90;97.10
15231;DHT22;32569;51.762;8.564;2022-09-09T14:00:46;21.10;97.00
15231;DHT22;32569;51.762;8.564;2022-09-09T14:03:13;21.40;95.80
15231;DHT22;32569;51.762;8.564;2022-09-09T14:05:40;21.50;94.70
15231;DHT22;32569;51.762;8.564;2022-09-09T14:08:14;21.60;94.70
15231;DHT22;32569;51.762;8.564;2022-09-09T14:10:41;21.60;95.00
15231;DHT22;32569;51.762;8.564;2022-09-09T14:13:07;21.50;95.00
15231;DHT22;32569;51.762;8.564;2022-09-09T14:15:37;21.40;94.20
15231;DHT22;32569;51.762;8.564;2022-09-09T14:18:10;21.30;93.90
15231;DHT22;32569;51.762;8.564;2022-09-09T14:20:39;21.30;94.50
15231;DHT22;32569;51.762;8.564;2022-09-09T14:23:05;21.20;94.40
15231;DHT22;32569;51.762;8.564;2022-09-09T14:25:35;21.20;93.90
15231;DHT22;32569;51.762;8.564;2022-09-09T14:28:20;21.30;93.80
15231;DHT22;32569;51.762;8.564;2022-09-09T14:30:49;21.30;93.90
15231;DHT22;32569;51.762;8.564;2022-09-09T14:33:17;21.30;94.20
15231;DHT22;32569;51.762;8.564;2022-09-09T14:35:44;21.30;93.60
15231;DHT22;32569;51.762;8.564;2022-09-09T14:38:11;21.20;94.30
15231;DHT22;32569;51.762;8.564;2022-09-09T14:40:38;21.10;93.60
15231;DHT22;32569;51.762;8.564;2022-09-09T14:43:05;21.10;93.70
15231;DHT22;32569;51.762;8.564;2022-09-09T14:45:32;21.30;93.80
15231;DHT22;32569;51.762;8.564;2022-09-09T14:47:59;21.40;93.60
15231;DHT22;32569;51.762;8.564;2022-09-09T14:50:27;21.70;93.00
15231;DHT22;32569;51.762;8.564;2022-09-09T14:52:54;21.90;93.30
15231;DHT22;32569;51.762;8.564;2022-09-09T14:55:20;22.10;92.20
15231;DHT22;32569;51.762;8.564;2022-09-09T14:57:47;22.00;91.80
15231;DHT22;32569;51.762;8.564;2022-09-09T15:00:14;21.80;91.90
15231;DHT22;32569;51.762;8.564;2022-09-09T15:02:41;21.60;92.10
15231;DHT22;32569;51.762;8.564;2022-09-09T15:05:08;21.40;92.90
15231;DHT22;32569;51.762;8.564;2022-09-09T15:07:37;21.30;92.90
15231;DHT22;32569;51.762;8.564;2022-09-09T15:10:05;21.30;92.80
15231;DHT22;32569;51.762;8.564;2022-09-09T15:12:32;21.40;93.10
15231;DHT22;32569;51.762;8.564;2022-09-09T15:15:00;21.40;93.20
15231;DHT22;32569;51.762;8.564;2022-09-09T15:17:27;21.40;93.50
15231;DHT22;32569;51.762;8.564;2022-09-09T15:19:55;21.40;93.50
15231;DHT22;32569;51.762;8.564;2022-09-09T15:22:21;21.30;93.90
15231;DHT22;32569;51.762;8.564;2022-09-09T15:24:50;21.20;94.40
15231;DHT22;32569;51.762;8.564;2022-09-09T15:27:17;21.20;94.00
15231;DHT22;32569;51.762;8.564;2022-09-09T15:29:44;21.10;94.10
15231;DHT22;32569;51.762;8.564;2022-09-09T15:32:10;21.00;94.30
15231;DHT22;32569;51.762;8.564;2022-09-09T15:34:37;20.90;94.40
15231;DHT22;32569;51.762;8.564;2022-09-09T15:37:04;20.80;95.50
15231;DHT22;32569;51.762;8.564;2022-09-09T15:39:31;20.70;98.00
15231;DHT22;32569;51.762;8.564;2022-09-09T15:41:59;20.40;97.90
15231;DHT22;32569;51.762;8.564;2022-09-09T15:44:27;20.20;99.80
15231;DHT22;32569;51.762;8.564;2022-09-09T15:46:54;19.90;99.90
15231;DHT22;32569;51.762;8.564;2022-09-09T15:49:21;19.70;99.90
15231;DHT22;32569;51.762;8.564;2022-09-09T15:51:52;19.50;99.90
15231;DHT22;32569;51.762;8.564;2022-09-09T15:54:20;19.40;99.90
15231;DHT22;32569;51.762;8.564;2022-09-09T15:56:50;19.40;99.90